Time;durP1;ratioP1;P1;durP2;ratioP2;P2;SDS_P1;SDS_P2;PMS_P1;PMS_P2;Temp;Humidity;BMP_temperature;BMP_pressure;BME280_temperature;BME280_humidity;BME280_pressure;Samples;Min_cycle;Max_cycle;Signal;HPM_P1;HPM_P2
2022/06/25 00:01:20;;;;;;;;;21.50;20.00;;;;;23.28;49.30;100551.84;110278;1265;23068;-51
2022/06/25 00:03:48;;;;;;;;;28.00;25.00;;;;;23.33;49.17;100552.00;110243;1264;19428;-50
2022/06/25 00:06:15;;;;;;;;;20.50;19.50;;;;;23.22;49.37;100553.04;110309;1264;18934;-50
2022/06/25 00:08:44;;;;;;;;;22.00;20.00;;;;;23.13;49.66;100552.85;110279;1264;18808;-50
2022/06/25 00:12:31;;;;;;;;;22.00;20.67;;;;;23.17;49.48;100547.83;110274;1265;19597;-51
2022/06/25 00:13:59;;;;;;;;;17.00;16.33;;;;;23.36;48.95;100553.75;110270;1265;18974;-53
2022/06/25 00:16:27;;;;;;;;;20.00;20.00;;;;;23.44;48.77;100549.01;110138;1264;18676;-52
2022/06/25 00:18:54;;;;;;;;;22.00;21.00;;;;;23.49;48.73;100548.16;110150;1265;19491;-49
2022/06/25 00:21:22;;;;;;;;;19.67;17.00;;;;;23.54;48.37;100554.17;110323;1264;18944;-50
2022/06/25 00:23:49;;;;;;;;;24.50;24.00;;;;;23.43;48.53;100548.95;110100;1265;20436;-50
2022/06/25 00:26:16;;;;;;;;;21.00;20.50;;;;;23.39;48.76;100548.80;110213;1264;19790;-49
2022/06/25 00:28:44;;;;;;;;;19.67;19.67;;;;;23.36;48.70;100546.63;110280;1264;19254;-49
2022/06/25 00:31:11;;;;;;;;;23.67;22.00;;;;;23.37;48.60;100546.90;110256;1264;18808;-48
2022/06/25 00:33:38;;;;;;;;;21.50;20.50;;;;;23.22;48.90;100550.64;110298;1265;19467;-52
2022/06/25 00:36:05;;;;;;;;;19.00;19.00;;;;;23.35;48.73;100549.79;110281;1264;18850;-50
2022/06/25 00:38:33;;;;;;;;;20.00;19.00;;;;;23.47;48.59;100548.98;110267;1264;19585;-49
2022/06/25 00:41:01;;;;;;;;;20.67;20.00;;;;;23.44;48.56;100547.99;110240;1264;19471;-50
2022/06/25 00:43:28;;;;;;;;;20.00;19.00;;;;;23.28;48.72;100547.80;110190;1265;18803;-52
2022/06/25 00:45:56;;;;;;;;;20.67;20.00;;;;;23.42;48.62;100548.55;110254;1264;22626;-51
2022/06/25 00:48:23;;;;;;;;;17.67;17.67;;;;;23.50;48.44;100550.45;110200;1264;19539;-49
2022/06/25 00:50:50;;;;;;;;;21.33;20.67;;;;;23.51;48.27;100552.72;110258;1264;18693;-50
2022/06/25 00:53:17;;;;;;;;;22.00;20.33;;;;;23.47;48.44;100552.83;110218;1264;18827;-50
2022/06/25 00:55:45;;;;;;;;;23.33;21.33;;;;;23.31;48.46;100553.13;110244;1264;19626;-53
2022/06/25 00:58:12;;;;;;;;;22.67;21.00;;;;;23.18;48.83;100554.56;110107;1265;22285;-50
2022/06/25 01:00:39;;;;;;;;;23.67;23.00;;;;;23.15;48.79;100550.23;110304;1264;18934;-48
2022/06/25 01:03:06;;;;;;;;;20.67;20.00;;;;;23.08;48.98;100549.11;110210;1264;19566;-54
2022/06/25 01:05:34;;;;;;;;;20.00;20.00;;;;;22.82;49.50;100550.89;110260;1264;18804;-51
2022/06/25 01:08:01;;;;;;;;;21.50;21.00;;;;;22.82;49.64;100548.50;110296;1264;19397;-51
2022/06/25 01:10:28;;;;;;;;;21.67;20.67;;;;;22.96;49.22;100552.39;110238;1265;22266;-51
2022/06/25 01:12:55;;;;;;;;;23.00;20.33;;;;;23.03;49.01;100553.42;110268;1264;22214;-49
2022/06/25 01:15:23;;;;;;;;;21.00;19.33;;;;;23.27;48.39;100551.86;110246;1265;18830;-50
2022/06/25 01:17:50;;;;;;;;;20.67;19.33;;;;;23.18;48.45;100551.49;110251;1265;19454;-51
2022/06/25 01:20:17;;;;;;;;;20.67;19.33;;;;;23.13;48.42;100547.08;110269;1264;19004;-50
2022/06/25 01:22:44;;;;;;;;;23.33;20.33;;;;;23.07;48.46;100547.02;110217;1264;18857;-49
2022/06/25 01:25:12;;;;;;;;;21.00;20.00;;;;;23.03;48.35;100545.36;110216;1264;20958;-50
2022/06/25 01:27:39;;;;;;;;;19.50;19.50;;;;;22.84;48.87;100544.90;110291;1264;20248;-52
2022/06/25 01:30:06;;;;;;;;;20.00;19.00;;;;;23.01;48.58;100540.59;110267;1265;18749;-49
2022/06/25 01:32:34;;;;;;;;;20.67;20.33;;;;;22.99;48.60;100543.92;110266;1264;19548;-49
2022/06/25 01:35:01;;;;;;;;;20.33;20.33;;;;;23.07;48.39;100539.59;110221;1265;18688;-49
2022/06/25 01:37:28;;;;;;;;;25.33;23.00;;;;;23.22;48.03;100543.70;110252;1265;18956;-49
2022/06/25 01:39:55;;;;;;;;;19.50;19.50;;;;;23.06;48.32;100538.82;110249;1265;19609;-50
2022/06/25 01:45:08;;;;;;;;;23.33;22.33;;;;;22.81;48.84;100544.73;110302;1264;20953;-51
2022/06/25 01:47:35;;;;;;;;;23.00;22.00;;;;;22.92;48.70;100547.34;110214;1264;21992;-48
2022/06/25 01:50:02;;;;;;;;;24.00;23.00;;;;;22.83;48.73;100546.36;110247;1265;18699;-49
2022/06/25 01:52:29;;;;;;;;;23.00;22.00;;;;;22.69;49.12;100548.85;110248;1264;22731;-49
2022/06/25 01:54:57;;;;;;;;;21.00;20.67;;;;;22.73;49.15;100551.60;110270;1264;19593;-48
2022/06/25 01:57:24;;;;;;;;;24.00;24.00;;;;;22.93;48.82;100549.41;110305;1264;18737;-48
2022/06/25 01:59:52;;;;;;;;;21.00;20.00;;;;;23.17;48.31;100549.05;110229;1264;18909;-48
2022/06/25 02:02:19;;;;;;;;;24.33;23.00;;;;;23.28;47.97;100547.08;110242;1264;19503;-49
2022/06/25 02:04:46;;;;;;;;;25.67;25.00;;;;;23.15;48.17;100546.38;110181;1264;22373;-50
2022/06/25 02:07:14;;;;;;;;;21.00;20.33;;;;;23.07;48.40;100546.36;110254;1264;18935;-50
2022/06/25 02:09:41;;;;;;;;;20.00;20.00;;;;;22.92;48.64;100549.91;110306;1264;21192;-49
2022/06/25 02:12:08;;;;;;;;;23.67;23.00;;;;;22.54;49.48;100548.90;110299;1264;20278;-49
2022/06/25 02:14:36;;;;;;;;;25.00;24.00;;;;;22.56;49.47;100549.05;110248;1264;19020;-50
2022/06/25 02:17:03;;;;;;;;;23.67;22.33;;;;;22.71;49.30;100549.71;110271;1264;22158;-50
2022/06/25 02:19:30;;;;;;;;;19.00;19.00;;;;;22.89;48.90;100545.00;110296;1264;20230;-51
2022/06/25 02:21:58;;;;;;;;;22.33;20.00;;;;;23.03;48.43;100543.63;110243;1264;21135;-51
2022/06/25 02:24:25;;;;;;;;;24.00;22.00;;;;;23.08;48.28;100538.38;110312;1265;19657;-49
2022/06/25 02:26:52;;;;;;;;;24.00;23.67;;;;;23.13;48.07;100545.66;110241;1264;18738;-49
2022/06/25 02:29:19;;;;;;;;;23.33;21.00;;;;;23.07;48.08;100543.80;110212;1264;18901;-48
2022/06/25 02:31:47;;;;;;;;;23.67;20.67;;;;;23.02;48.11;100546.48;110238;1265;21768;-52
2022/06/25 02:34:14;;;;;;;;;22.00;20.67;;;;;22.82;48.31;100547.02;110232;1265;19000;-48
2022/06/25 02:36:41;;;;;;;;;21.67;20.33;;;;;22.90;48.20;100548.75;110230;1264;19085;-54
2022/06/25 02:39:08;;;;;;;;;22.33;19.33;;;;;22.64;48.50;100549.77;110170;1264;19790;-54
2022/06/25 02:41:36;;;;;;;;;22.33;22.00;;;;;22.54;48.86;100547.85;110156;1265;18839;-51
2022/06/25 02:44:03;;;;;;;;;19.00;19.00;;;;;22.57;48.82;100554.45;110255;1265;18849;-50
2022/06/25 02:46:30;;;;;;;;;20.00;18.50;;;;;22.78;48.57;100556.02;110234;1264;19654;-51
2022/06/25 02:48:57;;;;;;;;;20.00;20.00;;;;;22.81;48.36;100556.77;110264;1264;18842;-49
2022/06/25 02:51:25;;;;;;;;;19.33;19.00;;;;;22.57;48.83;100555.83;110307;1264;19007;-49
2022/06/25 02:53:52;;;;;;;;;19.50;19.50;;;;;22.64;48.77;100555.45;110243;1264;19514;-50
2022/06/25 02:59:05;;;;;;;;;25.00;23.00;;;;;22.49;49.14;100567.38;110249;1265;19144;-47
2022/06/25 03:01:32;;;;;;;;;19.00;19.00;;;;;22.50;49.07;100564.66;110267;1264;20284;-51
2022/06/25 03:04:00;;;;;;;;;18.00;17.00;;;;;22.53;49.19;100566.42;110243;1265;18901;-51
2022/06/25 03:06:27;;;;;;;;;24.00;22.67;;;;;22.84;48.57;100566.64;110280;1265;22079;-51
2022/06/25 03:08:56;;;;;;;;;18.00;18.00;;;;;22.81;48.42;100567.48;110221;1265;21156;-50
2022/06/25 03:11:23;;;;;;;;;22.00;20.67;;;;;22.72;48.60;100574.14;110211;1265;19733;-50
2022/06/25 03:13:51;;;;;;;;;24.33;20.00;;;;;22.40;49.12;100578.19;110215;1265;18986;-52
2022/06/25 03:16:18;;;;;;;;;23.67;22.67;;;;;22.36;49.58;100581.39;110261;1264;19444;-51
2022/06/25 03:18:45;;;;;;;;;19.67;19.33;;;;;22.51;49.06;100578.61;110279;1264;20257;-53
2022/06/25 03:21:12;;;;;;;;;18.00;18.00;;;;;22.18;49.99;100578.14;110307;1264;21448;-51
2022/06/25 03:23:40;;;;;;;;;22.33;19.00;;;;;22.18;50.23;100578.80;110274;1264;19542;-52
2022/06/25 03:26:07;;;;;;;;;19.00;18.00;;;;;22.49;49.50;100585.71;110277;1264;18853;-50
2022/06/25 03:28:36;;;;;;;;;19.00;19.00;;;;;22.70;49.03;100585.81;110234;1264;21799;-51
2022/06/25 03:31:03;;;;;;;;;21.00;21.00;;;;;22.80;48.86;100584.62;110239;1264;19323;-51
2022/06/25 03:33:30;;;;;;;;;19.33;19.00;;;;;22.55;49.40;100588.66;110323;1264;18900;-53
2022/06/25 03:35:58;;;;;;;;;19.33;18.67;;;;;22.42;49.61;100588.98;110289;1265;18839;-51
2022/06/25 03:38:25;;;;;;;;;19.00;18.67;;;;;22.18;50.11;100591.45;110296;1264;19691;-51
2022/06/25 03:41:32;;;;;;;;;19.00;19.00;;;;;22.07;50.49;100590.48;110301;1264;18703;-51
2022/06/25 03:43:41;;;;;;;;;23.00;22.00;;;;;22.33;49.86;100589.55;110263;1264;18775;-49
2022/06/25 03:46:08;;;;;;;;;19.67;18.67;;;;;22.44;49.63;100590.77;110240;1264;19590;-49
2022/06/25 03:48:35;;;;;;;;;21.67;21.00;;;;;22.22;49.91;100592.45;110307;1264;18835;-49
2022/06/25 03:51:03;;;;;;;;;17.67;17.67;;;;;21.95;50.68;100598.98;110249;1265;24030;-50
2022/06/25 03:53:30;;;;;;;;;18.33;18.00;;;;;21.88;51.04;100601.48;110166;1265;19502;-50
2022/06/25 03:55:57;;;;;;;;;18.67;17.67;;;;;22.21;50.32;100601.81;110158;1264;18731;-49
2022/06/25 03:58:24;;;;;;;;;22.00;21.00;;;;;22.24;50.26;100602.48;110239;1264;22914;-52
2022/06/25 04:00:52;;;;;;;;;22.00;21.00;;;;;22.32;50.17;100607.18;110265;1264;19472;-48
2022/06/25 04:03:19;;;;;;;;;21.00;19.00;;;;;22.52;49.88;100607.96;110315;1264;20964;-51
2022/06/25 04:05:46;;;;;;;;;18.67;18.33;;;;;22.74;49.26;100608.30;110242;1264;18996;-51
2022/06/25 04:08:14;;;;;;;;;21.67;21.00;;;;;22.58;49.68;100610.89;110250;1264;19816;-49
2022/06/25 04:10:41;;;;;;;;;23.00;21.00;;;;;22.41;49.77;100615.86;110281;1264;18914;-49
2022/06/25 04:13:08;;;;;;;;;23.00;22.00;;;;;22.43;50.05;100614.23;110194;1264;19063;-49
2022/06/25 04:15:36;;;;;;;;;25.67;22.33;;;;;22.56;49.68;100618.52;110305;1264;19489;-49
2022/06/25 04:18:03;;;;;;;;;18.00;18.00;;;;;22.46;49.77;100622.72;110170;1265;18770;-50
2022/06/25 04:20:30;;;;;;;;;23.33;21.67;;;;;22.30;50.33;100619.58;110090;1264;22326;-52
2022/06/25 04:22:57;;;;;;;;;21.00;19.00;;;;;22.39;50.43;100621.96;109990;1264;31586;-47
2022/06/25 04:25:25;;;;;;;;;21.33;21.00;;;;;22.41;50.17;100626.15;110200;1264;18899;-49
2022/06/25 04:30:37;;;;;;;;;22.00;21.33;;;;;22.54;50.13;100618.96;110313;1264;19484;-50
2022/06/25 04:33:04;;;;;;;;;20.00;18.50;;;;;22.62;49.98;100623.84;110251;1265;22754;-51
2022/06/25 04:35:31;;;;;;;;;21.67;21.00;;;;;22.55;50.24;100627.63;110269;1264;19106;-49
2022/06/25 04:37:58;;;;;;;;;19.00;19.00;;;;;22.68;50.03;100634.04;110239;1264;20375;-51
2022/06/25 04:40:26;;;;;;;;;18.00;17.00;;;;;22.44;50.50;100628.83;110251;1265;18752;-51
2022/06/25 04:42:54;;;;;;;;;22.50;22.00;;;;;22.72;50.09;100628.96;110271;1264;18938;-48
2022/06/25 04:45:21;;;;;;;;;23.00;20.00;;;;;22.83;49.65;100629.77;110309;1264;19451;-50
2022/06/25 04:47:48;;;;;;;;;22.67;20.33;;;;;22.40;50.44;100636.01;110267;1264;20201;-50
2022/06/25 04:50:15;;;;;;;;;22.00;21.00;;;;;22.27;51.09;100638.10;110249;1264;18830;-50
2022/06/25 04:52:43;;;;;;;;;21.00;19.00;;;;;22.40;51.03;100636.77;110167;1265;20966;-50
2022/06/25 04:55:10;;;;;;;;;19.00;19.00;;;;;22.36;51.38;100636.20;110215;1264;18809;-51
2022/06/25 04:57:38;;;;;;;;;18.67;18.00;;;;;22.45;50.94;100635.90;110325;1264;18847;-51
2022/06/25 05:00:05;;;;;;;;;19.67;18.33;;;;;22.59;50.56;100636.02;110233;1264;19671;-51
2022/06/25 05:02:32;;;;;;;;;19.00;18.50;;;;;22.75;50.04;100637.73;110248;1264;19029;-48
2022/06/25 05:04:59;;;;;;;;;22.33;20.33;;;;;22.69;50.08;100637.20;110225;1265;22488;-47
2022/06/25 05:07:27;;;;;;;;;21.33;19.00;;;;;22.52;50.37;100641.59;110284;1264;19590;-48
2022/06/25 05:09:54;;;;;;;;;19.00;19.00;;;;;22.54;50.32;100642.33;110233;1264;18843;-49
2022/06/25 05:15:02;;;;;;;;;22.00;22.00;;;;;22.70;50.19;100653.45;110278;1265;19605;-50
2022/06/25 05:17:30;;;;;;;;;19.67;18.33;;;;;22.83;50.02;100654.02;110292;1264;22923;-51
2022/06/25 05:19:57;;;;;;;;;20.33;20.33;;;;;22.83;49.86;100654.66;110279;1264;21525;-50
2022/06/25 05:22:24;;;;;;;;;21.67;21.67;;;;;22.99;49.66;100651.50;110208;1264;22255;-50
2022/06/25 05:24:51;;;;;;;;;21.33;21.33;;;;;23.05;49.30;100653.55;110258;1265;22274;-51
2022/06/25 05:27:19;;;;;;;;;19.00;19.00;;;;;22.85;49.73;100656.95;110310;1265;20292;-50
2022/06/25 05:29:46;;;;;;;;;19.00;17.00;;;;;22.87;49.59;100662.48;110258;1264;19619;-51
2022/06/25 05:32:14;;;;;;;;;18.67;18.00;;;;;23.07;49.04;100659.91;110256;1264;18899;-51
2022/06/25 05:34:41;;;;;;;;;20.50;19.00;;;;;23.02;48.97;100657.30;110299;1264;19070;-51
2022/06/25 05:37:08;;;;;;;;;20.00;19.00;;;;;23.11;48.67;100663.70;110285;1264;19943;-51
2022/06/25 05:39:35;;;;;;;;;19.00;18.67;;;;;23.23;48.39;100657.55;110307;1265;19258;-51
2022/06/25 05:42:03;;;;;;;;;20.00;19.00;;;;;23.35;48.31;100661.74;110256;1264;28177;-46
2022/06/25 05:44:31;;;;;;;;;20.33;18.33;;;;;23.47;47.97;100660.68;110323;1264;19639;-49
2022/06/25 05:46:58;;;;;;;;;22.00;19.00;;;;;23.68;47.72;100659.62;110255;1264;20007;-50
2022/06/25 05:49:25;;;;;;;;;19.00;18.50;;;;;23.82;47.48;100660.15;110240;1264;21676;-49
2022/06/25 05:51:53;;;;;;;;;20.33;19.00;;;;;23.85;47.39;100659.75;110265;1265;19615;-50
2022/06/25 05:54:20;;;;;;;;;16.00;16.00;;;;;23.95;47.36;100661.73;110218;1264;19552;-48
2022/06/25 05:56:47;;;;;;;;;19.33;18.33;;;;;24.09;47.44;100661.18;110254;1264;21026;-49
2022/06/25 05:59:15;;;;;;;;;17.33;17.33;;;;;24.20;47.02;100661.21;110244;1263;19682;-49
2022/06/25 06:01:42;;;;;;;;;18.33;17.33;;;;;24.29;46.94;100654.95;110223;1265;18838;-50
2022/06/25 06:04:09;;;;;;;;;17.00;17.00;;;;;24.35;46.78;100657.73;110202;1264;19615;-51
2022/06/25 06:06:36;;;;;;;;;17.00;17.00;;;;;24.24;46.72;100656.23;110294;1263;25113;-49
2022/06/25 06:09:04;;;;;;;;;19.00;17.00;;;;;24.25;46.73;100651.89;110231;1265;22771;-49
2022/06/25 06:11:31;;;;;;;;;15.67;15.67;;;;;24.42;46.33;100650.82;110187;1264;18822;-50
2022/06/25 06:13:58;;;;;;;;;19.67;18.33;;;;;24.44;46.32;100655.78;110161;1264;22361;-54
2022/06/25 06:16:26;;;;;;;;;18.00;17.00;;;;;24.29;46.01;100658.53;110245;1264;19682;-53
2022/06/25 06:18:53;;;;;;;;;21.00;20.50;;;;;24.31;45.94;100654.70;110282;1264;18796;-54
2022/06/25 06:21:20;;;;;;;;;16.00;15.67;;;;;24.41;46.09;100650.82;110277;1264;20262;-54
2022/06/25 06:23:48;;;;;;;;;21.33;19.00;;;;;24.44;45.64;100659.09;110137;1263;19411;-49
2022/06/25 06:26:15;;;;;;;;;18.00;16.33;;;;;24.46;45.57;100659.20;110197;1264;18841;-49
2022/06/25 06:28:43;;;;;;;;;18.00;17.00;;;;;24.45;45.36;100655.82;110101;1264;21048;-50
2022/06/25 06:31:11;;;;;;;;;16.50;16.50;;;;;24.51;45.19;100653.23;110505;1264;19053;-50
2022/06/25 06:33:38;;;;;;;;;16.00;16.00;;;;;24.54;45.05;100652.48;110275;1264;19041;-49
2022/06/25 06:36:05;;;;;;;;;19.00;17.67;;;;;24.56;44.83;100657.23;110257;1265;22062;-49
2022/06/25 06:38:32;;;;;;;;;16.00;16.00;;;;;24.51;44.69;100654.88;110208;1264;18747;-49
2022/06/25 06:41:00;;;;;;;;;20.50;18.50;;;;;24.65;44.37;100651.27;110228;1264;18927;-50
2022/06/25 06:43:27;;;;;;;;;17.00;17.00;;;;;24.76;44.42;100657.41;110259;1264;20856;-49
2022/06/25 06:45:54;;;;;;;;;16.33;15.67;;;;;24.77;44.37;100654.01;110262;1264;18886;-52
2022/06/25 06:48:22;;;;;;;;;18.33;17.00;;;;;24.80;44.19;100653.95;110283;1265;18979;-50
2022/06/25 06:50:49;;;;;;;;;18.67;17.00;;;;;24.82;44.09;100654.23;110235;1264;19617;-50
2022/06/25 06:53:17;;;;;;;;;15.00;15.00;;;;;24.92;43.85;100655.62;110200;1264;18700;-49
2022/06/25 06:55:44;;;;;;;;;16.67;16.00;;;;;24.97;43.44;100649.94;110251;1264;18771;-48
2022/06/25 06:58:11;;;;;;;;;17.00;17.00;;;;;24.97;43.12;100652.46;110201;1264;20140;-51
2022/06/25 07:00:38;;;;;;;;;19.50;18.00;;;;;25.03;42.82;100641.23;110212;1265;18805;-50
2022/06/25 07:03:06;;;;;;;;;16.00;15.00;;;;;25.09;42.45;100649.04;110278;1264;18941;-51
2022/06/25 07:05:33;;;;;;;;;20.67;19.00;;;;;25.13;42.38;100641.48;109982;1264;351254;-50
2022/06/25 07:08:00;;;;;;;;;20.00;19.33;;;;;25.20;42.48;100646.94;110299;1265;19061;-50
2022/06/25 07:10:28;;;;;;;;;18.33;18.00;;;;;25.29;42.34;100642.91;110233;1264;18817;-49
2022/06/25 07:12:55;;;;;;;;;22.33;18.00;;;;;25.35;41.91;100647.04;110242;1264;19439;-51
2022/06/25 07:15:22;;;;;;;;;17.00;16.67;;;;;25.37;41.40;100641.68;110283;1265;18891;-49
2022/06/25 07:17:50;;;;;;;;;16.00;16.00;;;;;25.44;41.28;100644.01;110250;1265;18848;-50
2022/06/25 07:20:17;;;;;;;;;17.00;16.00;;;;;25.53;41.45;100642.46;110269;1265;21086;-51
2022/06/25 07:22:44;;;;;;;;;17.00;17.00;;;;;25.58;41.62;100643.30;110258;1265;22723;-51
2022/06/25 07:25:13;;;;;;;;;17.50;17.00;;;;;25.59;41.33;100638.81;110220;1265;18824;-51
2022/06/25 07:27:42;;;;;;;;;18.67;17.00;;;;;25.60;40.96;100638.86;110222;1264;19687;-48
2022/06/25 07:30:10;;;;;;;;;15.00;15.00;;;;;25.61;40.65;100636.33;110271;1264;18858;-51
2022/06/25 07:32:37;;;;;;;;;16.00;16.00;;;;;25.64;40.39;100632.40;110254;1265;18904;-50
2022/06/25 07:35:04;;;;;;;;;17.00;16.33;;;;;25.67;40.50;100635.90;110217;1264;19575;-51
2022/06/25 07:37:31;;;;;;;;;16.00;16.00;;;;;25.69;40.41;100633.07;110098;1264;20639;-50
2022/06/25 07:39:59;;;;;;;;;18.00;17.00;;;;;25.74;40.37;100631.41;110164;1264;18702;-49
2022/06/25 07:42:26;;;;;;;;;14.00;13.00;;;;;25.74;39.94;100639.17;110292;1264;23547;-51
2022/06/25 07:44:53;;;;;;;;;16.00;15.00;;;;;25.74;40.11;100635.53;110233;1264;19078;-54
2022/06/25 07:47:21;;;;;;;;;17.00;17.00;;;;;25.76;40.35;100645.48;110252;1265;21974;-50
2022/06/25 07:52:29;;;;;;;;;16.00;14.33;;;;;25.84;40.21;100650.10;109637;1268;18728;-52
2022/06/25 07:54:56;;;;;;;;;16.67;14.00;;;;;25.82;39.98;100647.75;109537;1269;18955;-52
2022/06/25 07:57:24;;;;;;;;;16.00;16.00;;;;;25.80;40.02;100650.97;109956;1268;19512;-52
2022/06/25 07:59:51;;;;;;;;;14.67;14.67;;;;;25.82;39.93;100648.21;109558;1269;19631;-50
2022/06/25 08:02:18;;;;;;;;;17.33;16.00;;;;;25.83;40.23;100650.83;109657;1268;21593;-52
2022/06/25 08:04:45;;;;;;;;;16.67;16.67;;;;;25.87;39.70;100654.42;109625;1268;19835;-51
2022/06/25 08:07:13;;;;;;;;;18.00;16.50;;;;;25.85;39.39;100666.38;109552;1270;22938;-49
2022/06/25 08:09:40;;;;;;;;;14.00;14.00;;;;;25.82;39.40;100663.37;109976;1267;22795;-49
2022/06/25 08:12:07;;;;;;;;;17.33;17.33;;;;;25.85;39.18;100659.02;109615;1269;22245;-48
2022/06/25 08:14:34;;;;;;;;;13.67;13.67;;;;;25.91;39.26;100664.42;109725;1268;18772;-51
2022/06/25 08:17:02;;;;;;;;;17.50;16.50;;;;;25.93;39.08;100664.77;109706;1268;23870;-51
2022/06/25 08:19:29;;;;;;;;;17.50;17.50;;;;;25.97;39.23;100658.83;109655;1268;19794;-52
2022/06/25 08:21:56;;;;;;;;;18.00;18.00;;;;;25.99;38.96;100663.32;109579;1269;20011;-51
2022/06/25 08:24:24;;;;;;;;;19.00;18.67;;;;;25.95;38.85;100658.11;109767;1268;20259;-53
2022/06/25 08:26:51;;;;;;;;;14.00;14.00;;;;;26.01;38.70;100659.55;109644;1268;19365;-52
2022/06/25 08:29:18;;;;;;;;;18.00;18.00;;;;;26.00;38.61;100664.33;109718;1268;20889;-49
2022/06/25 08:31:46;;;;;;;;;18.00;17.00;;;;;26.01;38.95;100665.42;110249;1264;22377;-48
2022/06/25 08:34:13;;;;;;;;;18.33;17.00;;;;;26.05;38.90;100665.67;110253;1264;22299;-51
2022/06/25 08:36:40;;;;;;;;;17.33;16.33;;;;;26.07;38.84;100666.63;110326;1264;18717;-49
2022/06/25 08:39:07;;;;;;;;;18.00;17.00;;;;;26.10;38.93;100674.08;110235;1264;18813;-50
2022/06/25 08:41:34;;;;;;;;;16.33;14.67;;;;;26.13;38.87;100664.68;110266;1264;19513;-49
2022/06/25 08:44:02;;;;;;;;;17.00;16.00;;;;;26.13;38.66;100663.45;110270;1265;20115;-50
2022/06/25 08:46:29;;;;;;;;;17.00;16.00;;;;;26.14;38.38;100679.22;110240;1264;20223;-49
2022/06/25 08:48:57;;;;;;;;;16.00;16.00;;;;;26.17;37.83;100671.90;110302;1265;22297;-51
2022/06/25 08:51:26;;;;;;;;;16.50;15.00;;;;;26.17;37.80;100671.19;110281;1264;18670;-50
2022/06/25 08:53:53;;;;;;;;;16.67;16.00;;;;;26.17;37.67;100665.06;110276;1265;18677;-49
2022/06/25 08:56:21;;;;;;;;;18.00;17.00;;;;;26.19;37.83;100674.86;110238;1264;22852;-51
2022/06/25 08:58:48;;;;;;;;;15.00;13.00;;;;;26.19;37.93;100668.50;110266;1265;18720;-50
2022/06/25 09:01:15;;;;;;;;;16.67;16.33;;;;;26.20;38.00;100669.69;110262;1265;18929;-49
2022/06/25 09:03:43;;;;;;;;;13.33;13.33;;;;;26.20;37.67;100665.17;110243;1264;20058;-50
2022/06/25 09:06:10;;;;;;;;;14.50;13.50;;;;;26.24;37.27;100672.61;110270;1264;20278;-51
2022/06/25 09:08:37;;;;;;;;;13.33;13.00;;;;;26.24;36.95;100671.13;110238;1265;18872;-49
2022/06/25 09:11:05;;;;;;;;;15.00;13.50;;;;;26.26;37.25;100661.74;110209;1265;22077;-49
2022/06/25 09:13:32;;;;;;;;;14.33;13.67;;;;;26.29;37.24;100669.17;110287;1264;18828;-50
2022/06/25 09:16:00;;;;;;;;;13.00;13.00;;;;;26.27;37.66;100668.59;110191;1265;18779;-49
2022/06/25 09:18:27;;;;;;;;;13.50;13.50;;;;;26.37;37.45;100663.36;110279;1264;20198;-49
2022/06/25 09:20:54;;;;;;;;;12.67;12.33;;;;;26.44;37.00;100661.93;110262;1265;18785;-49
2022/06/25 09:23:21;;;;;;;;;14.67;12.67;;;;;26.50;36.75;100654.73;110269;1264;18843;-49
2022/06/25 09:25:49;;;;;;;;;14.00;13.33;;;;;26.50;36.63;100657.04;110224;1265;21163;-48
2022/06/25 09:28:16;;;;;;;;;16.33;15.00;;;;;26.54;36.40;100655.64;110266;1264;18997;-46
2022/06/25 09:30:43;;;;;;;;;14.00;14.00;;;;;26.48;35.97;100661.04;110289;1264;19781;-51
2022/06/25 09:33:10;;;;;;;;;14.00;13.50;;;;;26.46;35.86;100660.99;110237;1264;19454;-53
2022/06/25 09:35:38;;;;;;;;;15.33;15.00;;;;;26.48;35.60;100665.30;110202;1264;22667;-49
2022/06/25 09:38:05;;;;;;;;;18.00;15.00;;;;;26.46;35.40;100659.64;110268;1265;18788;-51
2022/06/25 09:40:32;;;;;;;;;17.00;14.50;;;;;26.46;35.37;100658.04;110168;1265;22230;-49
2022/06/25 09:42:59;;;;;;;;;15.00;15.00;;;;;26.51;35.08;100655.23;110246;1265;20969;-53
2022/06/25 09:45:27;;;;;;;;;14.67;13.67;;;;;26.61;35.60;100650.70;110266;1265;21391;-49
2022/06/25 09:47:54;;;;;;;;;14.00;14.00;;;;;26.63;35.77;100657.36;110218;1264;19595;-50
2022/06/25 09:50:22;;;;;;;;;18.00;16.67;;;;;26.63;36.08;100662.88;110206;1265;18739;-50
2022/06/25 09:52:49;;;;;;;;;24.33;22.33;;;;;26.68;36.17;100657.86;110291;1265;22069;-50
2022/06/25 09:55:17;;;;;;;;;66.67;54.67;;;;;26.68;36.23;100652.66;110239;1265;19602;-50
2022/06/25 09:57:44;;;;;;;;;79.00;59.67;;;;;26.74;36.17;100650.02;110270;1265;18686;-49
2022/06/25 10:00:11;;;;;;;;;36.33;33.67;;;;;26.75;36.00;100645.56;110263;1264;18838;-49
2022/06/25 10:02:38;;;;;;;;;30.33;29.33;;;;;26.80;35.62;100645.41;110198;1265;19821;-49
2022/06/25 10:05:06;;;;;;;;;26.50;24.00;;;;;26.89;35.84;100652.05;110234;1264;18892;-49
2022/06/25 10:10:18;;;;;;;;;20.33;19.00;;;;;26.86;36.06;100647.48;110232;1265;19538;-49
2022/06/25 10:12:45;;;;;;;;;18.00;16.67;;;;;26.83;36.25;100640.61;110311;1264;22472;-49
2022/06/25 10:15:12;;;;;;;;;19.00;18.67;;;;;26.85;36.42;100649.15;110246;1265;19023;-49
2022/06/25 10:17:40;;;;;;;;;16.33;16.00;;;;;26.92;36.20;100649.23;110234;1264;19836;-49
2022/06/25 10:20:07;;;;;;;;;14.00;14.00;;;;;26.99;36.16;100651.99;110266;1264;18721;-49
2022/06/25 10:22:34;;;;;;;;;16.00;15.50;;;;;27.00;36.25;100642.76;110180;1264;18999;-50
2022/06/25 10:25:02;;;;;;;;;15.00;15.00;;;;;27.04;36.33;100640.41;110217;1264;20497;-49
2022/06/25 10:27:29;;;;;;;;;16.00;14.33;;;;;26.98;36.40;100638.96;110277;1264;18783;-49
2022/06/25 10:29:58;;;;;;;;;16.00;16.00;;;;;26.96;36.48;100638.32;110251;1265;18975;-49
2022/06/25 10:32:25;;;;;;;;;15.00;15.00;;;;;26.95;36.80;100631.75;110232;1264;21283;-50
2022/06/25 10:34:52;;;;;;;;;16.67;15.33;;;;;26.92;37.52;100632.78;110228;1264;18819;-54
2022/06/25 10:37:20;;;;;;;;;19.00;18.00;;;;;26.97;37.90;100632.71;110250;1264;19820;-53
2022/06/25 10:39:47;;;;;;;;;18.67;17.00;;;;;27.11;37.79;100634.09;110248;1264;19544;-49
2022/06/25 10:44:59;;;;;;;;;16.00;16.00;;;;;27.04;37.69;100631.65;110213;1264;18855;-51
2022/06/25 10:47:27;;;;;;;;;18.33;18.00;;;;;27.00;37.74;100631.20;110222;1264;20377;-52
2022/06/25 10:49:54;;;;;;;;;17.67;16.00;;;;;27.08;38.35;100635.24;110121;1264;18700;-52
2022/06/25 10:52:21;;;;;;;;;15.50;15.00;;;;;27.11;38.14;100632.00;109995;1265;19551;-51
2022/06/25 10:54:49;;;;;;;;;18.00;18.00;;;;;27.15;37.87;100629.23;110025;1264;19999;-50
2022/06/25 10:57:16;;;;;;;;;17.00;15.50;;;;;27.22;37.53;100635.06;110045;1265;18803;-49
2022/06/25 10:59:49;;;;;;;;;17.50;17.50;;;;;27.22;37.28;100634.10;110105;1265;19087;-51
2022/06/25 11:02:16;;;;;;;;;18.00;15.33;;;;;27.21;37.43;100639.98;110215;1265;21121;-51
2022/06/25 11:04:44;;;;;;;;;15.33;15.00;;;;;27.22;37.15;100634.73;110281;1265;23358;-55
2022/06/25 11:07:11;;;;;;;;;19.00;19.00;;;;;27.26;37.19;100631.19;110188;1265;18925;-53
2022/06/25 11:09:38;;;;;;;;;17.00;15.00;;;;;27.21;37.59;100628.38;110158;1266;20135;-49
2022/06/25 11:12:06;;;;;;;;;17.33;16.00;;;;;27.22;38.33;100634.69;110107;1267;18704;-49
2022/06/25 11:14:33;;;;;;;;;16.00;15.00;;;;;27.32;37.91;100637.40;110108;1266;18832;-50
2022/06/25 11:17:00;;;;;;;;;16.33;15.00;;;;;27.31;37.80;100639.23;110080;1266;19538;-49
2022/06/25 11:19:27;;;;;;;;;15.67;15.67;;;;;27.20;38.03;100629.83;110140;1267;18956;-51
2022/06/25 11:21:54;;;;;;;;;19.00;18.33;;;;;27.28;38.28;100628.89;110157;1267;18833;-53